Terminal Aerodrome Forecast
Issued by NWS Cleveland, OH

Home | Current Version | Previous Version | Graphics & Text | Print | Product List | Glossary On
Versions: 1 2 3 4 5 6 7 8 9 10 11 12 13 14 15 16
000
FTUS41 KCLE 202300
TAFMFD
TAF
KMFD 202334Z 2100/2124 25010KT P6SM OVC040
      TEMPO 2102/2106 -SHSN
     FM210900 26008KT P6SM SCT040
     FM211700 23006KT P6SM SCT040=

USA.gov is the U.S. government's official web portal to all federal, state and local government web resources and services.